Aeroporto :
LOGIN :

Iscrizione | Disclaimer

   EN    FR    IT 

 










Sommario :    VFR   VFR Marginale   IFR   IFR Intensivo   IFR Molto Intensivo
Visibilità : 
Base nubi : 
>= 8 km
>= 3000ft
5 / 8 km
1000 / 3000 ft
1500m / 5 km
500 / 1000 ft
800 / 1500m
200 / 500 ft
< 800m
< 200 ft
Simboli :   Temporali  Nebbia  Neve Forte  Precipitazioni Forti  Vento > 20 kt
SIGMETs :   Varie  Temporali  Ghiacco  Turbolenza  Onda orograficha  Ceneri Vulcaniche






- Altitudine del aeroporto : 327 ft
- Codice IATA : BHX


EGBB - Birmingham

ULTIMO METAR :
  • 031320Z 01010KT 8000 -RA SCT006 BKN009 13/12 Q1010

METARs OBSOLETI :
  • 031250Z 02009KT 8000 -RA SCT006 BKN013 13/12 Q1010 RERA
  • 031220Z 04009KT 7000 RA SCT009 SCT014 BKN018 13/12 Q1010
  • 031150Z 04011KT 8000 -RA SCT012 BKN017 14/12 Q1010
  • 031120Z 04010KT 9000 -RA SCT013 SCT017 14/12 Q1010 RERA
  • 031050Z 04010KT 9000 RA BKN014 14/11 Q1010

TAF TAF EGBB
Valido dal 03 a 12 ore il 04 a 12 ore UTC


031057Z 0312/0412 36008KT 9999 SCT025
TEMPO 0312/0403 7000 -RA BKN014
PROB30
TEMPO 0312/0319 4000 RA BKN009
ATIS : +44 121 780 0910



MetMap, La meteo Aeronautica in un colpo d'occhio ! - Copyright ORBIFLY Dicembre 2007 - Disclaimer

ORBIFLY MET'MAP TEAM :

Programmazione e sviluppo : Alexandra Zaïnal
Concezione : Baudouin d'Aumeries
Aiuto per la programmazione : Marc-Olivier Méhu
Supporto tecnico e logistico : Manuel Goepfert
Aiuto per la traduzione : Arnaldo La Scala

Contatto : metmap@orbifly.com




FONTI E CREDITI :

   NOAA